Biratnagar Airport


Codes: VNVT/BIR
Name: Biratnagar Airport
City: Biratnagar
Country: Nepal
Elevation: 236 ft.
Wikipedia:

Photos at Biratnagar Airport


   Photos courtesy of SpottingLog. You can add your own sightings and photos by signing up for a free trial today.



No photos found.

Weather at Biratnagar Airport


Time (UTC)DescriptionTempratureWindCloud coverageVisibilityPressureHumidity
21-Jun-2024 12:00Light Rain32°C7 mph, E92%10000m998hPa66%
21-Jun-2024 15:00Light Rain31°C7 mph, NE68%10000m999hPa71%
21-Jun-2024 18:00Moderate Rain28°C7 mph, E39%10000m999hPa82%
21-Jun-2024 21:00Moderate Rain25°C9 mph, NE88%5420m1000hPa93%
22-Jun-2024 00:00Moderate Rain25°C9 mph, E68%4486m1001hPa94%
22-Jun-2024 03:00Light Rain30°C11 mph, E27%10000m1002hPa75%
22-Jun-2024 06:00Few Clouds34°C9 mph, SE18%10000m1000hPa60%
22-Jun-2024 09:00Light Rain35°C4 mph, SE44%10000m998hPa53%
22-Jun-2024 12:00Broken Clouds32°C7 mph, NE73%10000m997hPa69%
22-Jun-2024 15:00Light Rain29°C7 mph, NE30%10000m1000hPa78%
22-Jun-2024 18:00Moderate Rain27°C9 mph, E23%5845m1001hPa87%
22-Jun-2024 21:00Light Rain27°C7 mph, NE38%4920m1000hPa87%
23-Jun-2024 00:00Moderate Rain26°C7 mph, E37%10000m1002hPa92%
23-Jun-2024 03:00Light Rain30°C11 mph, E59%10000m1003hPa77%
23-Jun-2024 06:00Light Rain31°C4 mph, SE81%10000m1001hPa73%
23-Jun-2024 09:00Light Rain34°C7 mph, E100%10000m998hPa58%
23-Jun-2024 12:00Overcast Clouds31°C9 mph, E93%10000m997hPa72%
23-Jun-2024 15:00Light Rain29°C9 mph, E97%10000m999hPa79%
23-Jun-2024 18:00Light Rain27°C11 mph, E98%10000m1000hPa85%
23-Jun-2024 21:00Light Rain26°C9 mph, E100%10000m999hPa91%
24-Jun-2024 00:00Light Rain26°C9 mph, NE100%10000m1001hPa92%
24-Jun-2024 03:00Light Rain29°C13 mph, E100%10000m1001hPa80%
24-Jun-2024 06:00Overcast Clouds29°C11 mph, E100%10000m1001hPa80%
24-Jun-2024 09:00Overcast Clouds31°C13 mph, E99%10000m999hPa70%
24-Jun-2024 12:00Overcast Clouds30°C9 mph, E100%10000m997hPa75%
24-Jun-2024 15:00Light Rain27°C7 mph, E98%10000m999hPa86%
24-Jun-2024 18:00Moderate Rain26°C9 mph, E99%5674m1000hPa92%
24-Jun-2024 21:00Light Rain26°C9 mph, E100%10000m998hPa90%
25-Jun-2024 00:00Light Rain26°C9 mph, SE100%10000m999hPa91%
25-Jun-2024 03:00Light Rain27°C13 mph, E100%10000m1000hPa87%
25-Jun-2024 06:00Light Rain28°C13 mph, E100%10000m1000hPa87%
25-Jun-2024 09:00Overcast Clouds29°C13 mph, E100%10000m999hPa80%
25-Jun-2024 12:00Overcast Clouds27°C11 mph, E100%10000m997hPa88%
25-Jun-2024 15:00Overcast Clouds27°C7 mph, E89%10000m999hPa88%
25-Jun-2024 18:00Light Rain26°C9 mph, E95%10000m1000hPa88%
25-Jun-2024 21:00Light Rain26°C9 mph, E100%10000m999hPa91%
26-Jun-2024 00:00Light Rain26°C9 mph, NE100%10000m999hPa90%
26-Jun-2024 03:00Light Rain27°C11 mph, E100%9047m1001hPa89%
26-Jun-2024 06:00Light Rain26°C11 mph, E100%10000m1001hPa92%
26-Jun-2024 09:00Light Rain25°C11 mph, E100%10000m1000hPa96%